Time;durP1;ratioP1;P1;durP2;ratioP2;P2;SDS_P1;SDS_P2;PMS_P1;PMS_P2;Temp;Humidity;BMP_temperature;BMP_pressure;BME280_temperature;BME280_humidity;BME280_pressure;Samples;Min_cycle;Max_cycle;Signal;HPM_P1;HPM_P2
2022/01/07 00:01:37;;;;;;;10.70;4.25;;;;;;;3.84;66.04;100346.63;5063955;28;20053;-88
2022/01/07 00:04:06;;;;;;;7.78;3.72;;;;;;;3.87;65.98;100343.34;5064776;28;20056;-88
2022/01/07 00:06:33;;;;;;;8.82;3.97;;;;;;;3.94;65.03;100337.56;5065203;28;20140;-87
2022/01/07 00:09:01;;;;;;;8.05;3.67;;;;;;;3.91;65.90;100336.19;5065733;28;20056;-86
2022/01/07 00:11:28;;;;;;;9.82;4.32;;;;;;;4.01;66.20;100341.72;5065612;28;20041;-87
2022/01/07 00:13:55;;;;;;;9.95;4.65;;;;;;;3.79;66.43;100325.41;5065371;28;20045;-87
2022/01/07 00:16:24;;;;;;;7.57;3.42;;;;;;;3.92;65.84;100318.53;5065514;28;20049;-86
2022/01/07 00:18:52;;;;;;;7.30;4.00;;;;;;;3.92;66.13;100329.56;5065964;28;20043;-86
2022/01/07 00:21:20;;;;;;;10.38;4.10;;;;;;;3.92;65.85;100318.53;5065911;28;20053;-86
2022/01/07 00:23:48;;;;;;;8.93;4.22;;;;;;;3.95;65.81;100306.13;5064216;28;20490;-88
2022/01/07 00:26:15;;;;;;;9.13;3.83;;;;;;;3.95;65.93;100317.16;5065112;28;20060;-87
2022/01/07 00:28:43;;;;;;;10.60;4.40;;;;;;;3.95;65.55;100304.22;5064709;28;20062;-88
2022/01/07 00:31:10;;;;;;;9.13;4.35;;;;;;;3.94;65.65;100294.28;5065670;28;20060;-87
2022/01/07 00:33:39;;;;;;;11.13;3.85;;;;;;;4.03;65.48;100289.91;5064046;28;20053;-86
2022/01/07 00:36:07;;;;;;;10.15;4.03;;;;;;;4.00;65.46;100284.91;5063640;28;20049;-86
2022/01/07 00:38:34;;;;;;;8.50;3.55;;;;;;;4.00;65.65;100290.44;5065341;28;20060;-86
2022/01/07 00:41:03;;;;;;;9.13;3.65;;;;;;;4.06;65.52;100280.25;5064029;28;20063;-86
2022/01/07 00:43:30;;;;;;;5.00;3.33;;;;;;;4.13;65.18;100277.19;5064611;28;20056;-87
2022/01/07 00:45:57;;;;;;;10.55;3.63;;;;;;;4.29;64.95;100273.34;5065390;28;20049;-88
2022/01/07 00:48:25;;;;;;;12.48;4.72;;;;;;;4.18;65.19;100277.19;5065489;28;20057;-88
2022/01/07 00:50:54;;;;;;;9.75;3.63;;;;;;;4.07;64.78;100281.88;5065043;28;20064;-88
2022/01/07 00:53:21;;;;;;;6.30;3.50;;;;;;;4.13;64.83;100255.16;5065874;28;20068;-87
2022/01/07 00:55:48;;;;;;;8.40;3.80;;;;;;;4.13;64.75;100260.66;5065594;28;20471;-88
2022/01/07 00:58:16;;;;;;;7.78;3.00;;;;;;;4.17;64.80;100259.81;5065431;28;20048;-88
2022/01/07 01:00:43;;;;;;;11.77;3.90;;;;;;;3.95;65.31;100249.09;5065138;28;20056;-87
2022/01/07 01:03:10;;;;;;;9.13;3.47;;;;;;;4.16;64.73;100246.31;5065795;28;20500;-86
2022/01/07 01:05:39;;;;;;;6.20;3.17;;;;;;;4.17;64.13;100242.47;5065841;28;20060;-85
2022/01/07 01:08:07;;;;;;;7.10;3.40;;;;;;;4.09;64.99;100237.50;5065735;28;20057;-86
2022/01/07 01:10:35;;;;;;;8.32;3.88;;;;;;;4.17;64.97;100237.78;5064061;28;20060;-86
2022/01/07 01:13:03;;;;;;;6.82;3.42;;;;;;;4.15;65.48;100233.66;5064410;28;20068;-86
2022/01/07 01:15:30;;;;;;;6.72;3.60;;;;;;;4.12;65.07;100251.59;5063140;28;20053;-85
2022/01/07 01:17:59;;;;;;;9.73;4.70;;;;;;;4.13;64.17;100257.91;5061411;28;20409;-87
2022/01/07 01:20:27;;;;;;;8.50;3.90;;;;;;;4.14;64.61;100226.50;5062616;28;20049;-88
2022/01/07 01:22:54;;;;;;;6.70;3.45;;;;;;;4.22;64.42;100228.66;5062965;28;20063;-87
2022/01/07 01:25:23;;;;;;;9.20;3.50;;;;;;;4.25;64.00;100226.19;5062138;28;20053;-87
2022/01/07 01:27:51;;;;;;;8.43;3.93;;;;;;;3.94;65.03;100224.56;5061597;28;20049;-86
2022/01/07 01:30:21;;;;;;;7.45;3.45;;;;;;;4.06;64.11;100217.69;5063187;28;20447;-86
2022/01/07 01:32:48;;;;;;;;;;;;;;;4.03;64.33;100221.00;5063872;28;20053;-86
2022/01/07 01:35:17;;;;;;;7.22;3.20;;;;;;;4.17;64.41;100226.75;5064991;28;20404;-86
2022/01/07 01:37:45;;;;;;;10.43;3.65;;;;;;;4.05;64.27;100202.25;5062761;28;20060;-86
2022/01/07 01:40:15;;;;;;;8.25;3.38;;;;;;;4.04;64.87;100203.34;5063086;28;20052;-86
2022/01/07 01:42:44;;;;;;;9.30;3.78;;;;;;;4.04;65.13;100217.13;5063299;28;20060;-87
2022/01/07 01:45:15;;;;;;;10.00;4.45;;;;;;;4.07;64.62;100205.56;5063026;28;20057;-87
2022/01/07 01:47:43;;;;;;;9.30;4.65;;;;;;;4.04;64.63;100214.38;5064169;28;20059;-87
2022/01/07 01:50:13;;;;;;;6.50;3.55;;;;;;;3.95;65.29;100199.50;5064304;28;20513;-88
2022/01/07 01:52:46;;;;;;;7.72;3.97;;;;;;;3.96;65.16;100212.16;5065015;28;20057;-88
2022/01/07 01:55:15;;;;;;;7.80;4.28;;;;;;;3.84;65.46;100178.56;5063485;28;20096;-87
2022/01/07 01:57:44;;;;;;;7.78;4.05;;;;;;;4.00;65.35;100177.44;5063690;28;20051;-86
2022/01/07 02:00:12;;;;;;;10.48;4.78;;;;;;;4.01;64.83;100183.78;5061730;28;20049;-86
2022/01/07 02:02:40;;;;;;;9.00;4.13;;;;;;;3.98;65.32;100201.69;5063031;28;20068;-86
2022/01/07 02:05:09;;;;;;;21.33;6.55;;;;;;;3.99;65.46;100181.31;5061838;28;20060;-87
2022/01/07 02:07:39;;;;;;;8.75;4.13;;;;;;;3.96;65.36;100186.56;5060850;28;20055;-86
2022/01/07 02:10:09;;;;;;;9.27;4.40;;;;;;;4.14;64.92;100171.38;5061773;28;20049;-86
2022/01/07 02:12:36;;;;;;;5.95;3.97;;;;;;;3.90;65.21;100169.19;5061853;28;20060;-86
2022/01/07 02:15:06;;;;;;;8.98;4.13;;;;;;;4.05;64.55;100166.44;5061833;28;20057;-86
2022/01/07 02:17:33;;;;;;;10.45;4.85;;;;;;;4.15;64.57;100168.31;5060871;28;20048;-86
2022/01/07 02:20:03;;;;;;;8.02;4.20;;;;;;;4.16;64.33;100169.13;5061100;28;20057;-87
2022/01/07 02:22:30;;;;;;;9.48;3.85;;;;;;;4.10;64.13;100159.25;5061501;28;20056;-88
2022/01/07 02:24:58;;;;;;;9.18;4.30;;;;;;;4.06;63.97;100153.47;5060566;28;20063;-87
2022/01/07 02:27:26;;;;;;;9.43;4.63;;;;;;;4.15;64.21;100145.44;5061325;28;20414;-87
2022/01/07 02:29:54;;;;;;;10.63;4.10;;;;;;;4.12;64.27;100133.06;5061436;28;20509;-86
2022/01/07 02:32:22;;;;;;;9.07;4.18;;;;;;;4.16;63.74;100138.81;5061762;28;20057;-88
2022/01/07 02:34:49;;;;;;;8.70;4.80;;;;;;;4.07;64.56;100119.28;5061237;28;20053;-86
2022/01/07 02:37:18;;;;;;;7.95;3.75;;;;;;;4.21;64.01;100123.09;5061714;28;20055;-86
2022/01/07 02:39:46;;;;;;;9.93;4.28;;;;;;;4.21;64.05;100123.09;5060384;28;20053;-86
2022/01/07 02:42:13;;;;;;;6.90;3.85;;;;;;;4.32;63.78;100098.25;5063026;28;20054;-86
2022/01/07 02:44:41;;;;;;;8.95;4.20;;;;;;;4.35;63.18;100117.81;5063066;28;20059;-87
2022/01/07 02:47:08;;;;;;;6.32;3.70;;;;;;;4.36;63.13;100138.75;5061557;28;20037;-87
2022/01/07 02:49:36;;;;;;;9.38;4.45;;;;;;;4.18;64.01;100100.78;5061077;28;20049;-86
2022/01/07 02:52:04;;;;;;;7.88;4.18;;;;;;;4.28;63.61;100092.47;5061997;28;20053;-87
2022/01/07 02:54:32;;;;;;;9.02;4.03;;;;;;;4.25;63.99;100101.31;5061804;28;20052;-86
2022/01/07 02:57:00;;;;;;;9.50;3.95;;;;;;;4.22;63.42;100107.38;5059986;28;20502;-87
2022/01/07 02:59:27;;;;;;;8.65;4.50;;;;;;;4.40;63.53;100086.63;5059867;28;20060;-86
2022/01/07 03:01:54;;;;;;;12.70;4.88;;;;;;;4.33;63.54;100114.53;5059386;28;20045;-86
2022/01/07 03:04:23;;;;;;;7.38;3.45;;;;;;;4.35;63.63;100100.47;5061361;28;20049;-87
2022/01/07 03:06:51;;;;;;;8.45;4.07;;;;;;;4.13;64.40;100109.06;5061748;28;20043;-87
2022/01/07 03:09:18;;;;;;;9.73;4.20;;;;;;;4.31;64.11;100089.16;5061847;28;20060;-87
2022/01/07 03:11:47;;;;;;;11.88;3.83;;;;;;;4.29;64.47;100080.34;5060872;28;20053;-87
2022/01/07 03:14:16;;;;;;;11.15;4.32;;;;;;;4.22;64.71;100090.84;5060494;28;20056;-87
2022/01/07 03:16:43;;;;;;;8.85;3.85;;;;;;;3.95;65.71;100092.03;5060212;28;20060;-88
2022/01/07 03:19:10;;;;;;;7.93;3.95;;;;;;;4.11;65.63;100070.75;5059944;28;20470;-88
2022/01/07 03:21:38;;;;;;;7.85;3.63;;;;;;;4.21;65.24;100058.88;5061223;28;20498;-88
2022/01/07 03:24:05;;;;;;;8.75;4.00;;;;;;;4.16;65.28;100076.28;5061028;28;20481;-88
2022/01/07 03:26:33;;;;;;;6.43;3.92;;;;;;;4.17;65.59;100061.38;5060904;28;20049;-87
2022/01/07 03:29:02;;;;;;;10.70;4.63;;;;;;;4.02;66.19;100059.50;5060421;28;20044;-87
2022/01/07 03:31:29;;;;;;;8.60;4.63;;;;;;;4.12;66.45;100049.56;5061265;28;20049;-87
2022/01/07 03:33:56;;;;;;;11.32;4.43;;;;;;;4.04;66.80;100048.19;5060106;28;20075;-87
2022/01/07 03:36:24;;;;;;;10.85;4.28;;;;;;;4.10;66.31;100057.28;5060282;28;20064;-86
2022/01/07 03:38:51;;;;;;;9.43;4.38;;;;;;;3.98;67.41;100052.06;5059610;28;20107;-88
2022/01/07 03:41:19;;;;;;;11.00;4.57;;;;;;;4.07;67.07;100040.19;5060423;28;20049;-86
2022/01/07 03:43:46;;;;;;;8.32;4.78;;;;;;;3.88;67.66;100041.91;5060972;28;20053;-87
2022/01/07 03:46:15;;;;;;;7.93;4.65;;;;;;;3.92;67.44;100026.47;5060783;28;20053;-87
2022/01/07 03:48:42;;;;;;;10.13;4.95;;;;;;;3.85;67.91;100032.28;5060814;28;20486;-86
2022/01/07 03:51:10;;;;;;;8.25;5.05;;;;;;;3.77;68.15;100038.34;5060076;28;20064;-86
2022/01/07 03:53:37;;;;;;;10.75;4.88;;;;;;;3.66;69.31;100040.31;5060232;28;20045;-87
2022/01/07 03:56:05;;;;;;;7.93;4.57;;;;;;;3.93;68.23;100033.63;5060491;28;20049;-87
2022/01/07 03:58:33;;;;;;;7.82;4.40;;;;;;;3.97;67.93;100015.44;5060677;28;20053;-86
2022/01/07 04:01:00;;;;;;;10.82;4.90;;;;;;;3.72;69.38;100016.34;5058153;28;20049;-86
2022/01/07 04:03:29;;;;;;;14.05;5.25;;;;;;;3.79;69.27;100022.38;5060694;28;20056;-87
2022/01/07 04:05:56;;;;;;;7.43;4.37;;;;;;;3.68;70.08;100006.19;5060251;28;20067;-87
2022/01/07 04:08:24;;;;;;;9.55;4.20;;;;;;;3.65;70.58;100011.16;5061546;28;20498;-87
2022/01/07 04:10:51;;;;;;;9.27;4.70;;;;;;;3.66;70.58;100001.75;5061103;28;20040;-87
2022/01/07 04:13:19;;;;;;;9.48;4.95;;;;;;;3.58;71.28;99988.56;5061114;28;20052;-86
2022/01/07 04:15:46;;;;;;;11.95;5.10;;;;;;;3.60;71.28;99991.88;5060030;28;20060;-87
2022/01/07 04:18:13;;;;;;;9.57;4.38;;;;;;;3.47;72.29;99973.19;5060703;28;20056;-87
2022/01/07 04:20:42;;;;;;;8.07;4.93;;;;;;;3.36;73.37;99979.81;5059222;28;20056;-87
2022/01/07 04:23:11;;;;;;;10.77;5.60;;;;;;;3.41;73.60;99982.56;5063144;28;20394;-87
2022/01/07 04:25:38;;;;;;;6.80;4.45;;;;;;;3.53;72.59;99985.84;5063325;28;20053;-87
2022/01/07 04:28:08;;;;;;;6.45;4.53;;;;;;;3.43;73.62;99969.34;5063609;28;20053;-86
2022/01/07 04:30:38;;;;;;;8.15;4.55;;;;;;;3.33;73.55;99966.59;5063133;28;20064;-86
2022/01/07 04:33:07;;;;;;;10.32;4.78;;;;;;;3.21;74.21;99967.75;5062441;28;20172;-88
2022/01/07 04:35:36;;;;;;;10.35;4.90;;;;;;;3.19;74.37;99961.69;5062682;28;20056;-87
2022/01/07 04:38:05;;;;;;;7.97;4.70;;;;;;;3.34;74.60;99969.09;5063731;28;20052;-88
2022/01/07 04:40:33;;;;;;;9.35;4.15;;;;;;;3.28;74.89;99961.13;5062608;28;20060;-88
2022/01/07 04:43:01;;;;;;;9.18;4.28;;;;;;;3.30;74.53;99931.38;5063568;28;20079;-87
2022/01/07 04:45:29;;;;;;;8.80;4.10;;;;;;;3.20;75.01;99948.75;5064546;28;20057;-87
2022/01/07 04:47:56;;;;;;;7.85;4.63;;;;;;;3.25;74.78;99982.59;5063275;28;20037;-86
2022/01/07 04:50:24;;;;;;;11.48;4.68;;;;;;;3.22;73.69;99947.38;5063143;28;20044;-86
2022/01/07 04:52:52;;;;;;;10.00;4.28;;;;;;;3.19;74.28;99956.19;5063059;28;20029;-86
2022/01/07 04:55:23;;;;;;;8.13;3.83;;;;;;;3.33;73.33;99936.34;5063824;28;20060;-87
2022/01/07 04:57:51;;;;;;;8.63;3.97;;;;;;;3.36;73.21;99922.00;5062294;28;20045;-88
2022/01/07 05:00:22;;;;;;;6.30;3.45;;;;;;;3.38;74.24;99919.78;5061735;28;20056;-88
2022/01/07 05:02:50;;;;;;;7.05;3.70;;;;;;;3.45;74.05;99929.41;5061763;28;20478;-87
2022/01/07 05:05:18;;;;;;;11.13;3.33;;;;;;;3.60;72.08;99946.97;5061548;28;20057;-87
2022/01/07 05:07:45;;;;;;;7.63;3.65;;;;;;;3.54;72.16;99943.41;5060802;28;20462;-87
2022/01/07 05:10:15;;;;;;;6.03;3.22;;;;;;;3.37;73.32;99921.72;5061872;28;20387;-87
2022/01/07 05:12:44;;;;;;;7.82;3.65;;;;;;;3.34;73.31;99944.31;5061827;28;20053;-87
2022/01/07 05:15:12;;;;;;;4.70;3.00;;;;;;;3.41;73.25;99924.75;5061437;28;20060;-88
2022/01/07 05:17:39;;;;;;;7.38;3.75;;;;;;;3.52;73.61;99944.81;5061173;28;20355;-88
2022/01/07 05:20:08;;;;;;;7.97;3.45;;;;;;;3.56;72.52;99943.13;5060849;28;20123;-89
2022/01/07 05:22:35;;;;;;;5.30;2.90;;;;;;;3.60;72.12;99925.78;5062125;28;20049;-87
2022/01/07 05:25:04;;;;;;;6.38;3.42;;;;;;;3.61;72.18;99932.09;5062348;28;20072;-87
2022/01/07 05:27:31;;;;;;;6.32;3.33;;;;;;;3.49;72.61;99924.19;5062335;28;20406;-87
2022/01/07 05:30:00;;;;;;;4.75;3.13;;;;;;;3.60;71.70;99923.00;5062096;28;20067;-87
2022/01/07 05:32:27;;;;;;;5.55;3.17;;;;;;;3.39;72.64;99940.72;5061288;28;20100;-86
2022/01/07 05:34:55;;;;;;;5.13;3.10;;;;;;;3.53;72.04;99919.75;5062328;28;20049;-87
2022/01/07 05:37:22;;;;;;;8.35;4.13;;;;;;;3.49;72.01;99924.19;5061211;28;20512;-86
2022/01/07 05:39:49;;;;;;;4.60;3.20;;;;;;;3.57;71.98;99922.75;5062381;28;20049;-87
2022/01/07 05:42:17;;;;;;;7.18;3.45;;;;;;;3.55;71.78;99925.81;5061952;28;20056;-87
2022/01/07 05:44:44;;;;;;;7.45;3.30;;;;;;;3.47;72.09;99915.38;5062520;28;20056;-87
2022/01/07 05:47:13;;;;;;;8.52;3.40;;;;;;;3.53;72.06;99918.91;5061903;28;20060;-86
2022/01/07 05:49:40;;;;;;;7.78;3.13;;;;;;;3.61;71.62;99910.91;5062586;28;20064;-86
2022/01/07 05:52:08;;;;;;;7.75;3.80;;;;;;;3.69;71.89;99920.50;5061080;28;20053;-86
2022/01/07 05:54:35;;;;;;;8.07;3.35;;;;;;;3.65;72.27;99923.00;5060144;28;20056;-89
2022/01/07 05:57:03;;;;;;;6.43;3.47;;;;;;;3.73;71.85;99912.50;5059692;28;20053;-88
2022/01/07 05:59:30;;;;;;;5.15;3.25;;;;;;;3.78;70.96;99921.56;5060358;28;20053;-88
2022/01/07 06:01:58;;;;;;;5.75;3.25;;;;;;;3.77;70.22;99914.41;5061390;28;20064;-87
2022/01/07 06:04:27;;;;;;;6.20;3.60;;;;;;;3.72;70.71;99906.19;5061296;28;20041;-87
2022/01/07 06:06:54;;;;;;;5.45;2.80;;;;;;;3.67;71.42;99903.44;5061074;28;20045;-88
2022/01/07 06:09:21;;;;;;;3.63;2.67;;;;;;;3.81;70.92;99914.66;5060597;28;20060;-87
2022/01/07 06:11:49;;;;;;;5.53;3.50;;;;;;;3.75;70.15;99891.00;5060500;28;20064;-87
2022/01/07 06:14:16;;;;;;;7.82;3.38;;;;;;;3.70;70.58;99908.38;5059810;28;20049;-88
2022/01/07 06:16:43;;;;;;;5.60;3.20;;;;;;;3.73;70.52;99899.53;5059959;28;20065;-88
2022/01/07 06:19:10;;;;;;;4.97;3.22;;;;;;;3.63;71.12;99897.69;5060643;28;20053;-88
2022/01/07 06:21:39;;;;;;;7.40;2.85;;;;;;;3.59;71.16;99893.84;5059822;28;20067;-87
2022/01/07 06:24:07;;;;;;;4.97;2.78;;;;;;;3.56;71.80;99897.16;5055782;28;20049;-88
2022/01/07 06:26:35;;;;;;;9.85;3.75;;;;;;;3.61;71.81;99899.91;5066720;28;20057;-87
2022/01/07 06:29:03;;;;;;;5.05;2.92;;;;;;;3.74;71.76;99903.13;5059359;28;20410;-87
2022/01/07 06:31:31;;;;;;;6.90;3.35;;;;;;;3.68;72.30;99894.06;5040646;28;20065;-87
2022/01/07 06:33:59;;;;;;;6.68;3.42;;;;;;;3.58;72.06;99888.63;5054044;28;20056;-88
2022/01/07 06:36:27;;;;;;;5.65;3.30;;;;;;;3.66;72.86;99877.81;5060516;28;20052;-87
2022/01/07 06:38:58;;;;;;;5.85;2.83;;;;;;;3.61;72.68;99877.03;5060006;28;20385;-88
2022/01/07 06:41:25;;;;;;;4.72;2.97;;;;;;;3.66;73.13;99899.84;5058839;28;20049;-87
2022/01/07 06:43:53;;;;;;;6.28;3.38;;;;;;;3.70;72.95;99875.34;5058132;28;20049;-88
2022/01/07 06:46:20;;;;;;;5.50;2.92;;;;;;;3.50;73.23;99887.25;5063278;28;20049;-87
2022/01/07 06:48:47;;;;;;;5.43;3.30;;;;;;;3.55;73.32;99903.78;5058409;28;20053;-87
2022/01/07 06:51:15;;;;;;;7.93;4.10;;;;;;;3.54;73.75;99893.84;5057825;28;20076;-86
2022/01/07 06:53:42;;;;;;;6.35;3.83;;;;;;;3.40;75.33;99881.78;5059441;28;20049;-87
2022/01/07 06:56:11;;;;;;;6.97;4.07;;;;;;;3.18;76.97;99890.41;5057560;28;20410;-87
2022/01/07 06:58:38;;;;;;;6.10;3.67;;;;;;;3.31;76.44;99881.56;5058642;28;20052;-88
2022/01/07 07:01:06;;;;;;;7.53;4.15;;;;;;;3.20;78.93;99899.22;5055462;28;20053;-78
2022/01/07 07:03:40;;;;;;;5.72;3.90;;;;;;;3.29;78.74;99907.72;5060167;28;20053;-88
2022/01/07 07:06:08;;;;;;;6.15;3.42;;;;;;;3.23;77.18;99905.00;5061281;28;20055;-86
2022/01/07 07:08:35;;;;;;;7.18;3.60;;;;;;;3.35;75.57;99903.84;5057604;28;20059;-87
2022/01/07 07:11:03;;;;;;;6.65;3.70;;;;;;;3.38;76.02;99898.59;5058960;28;20466;-87
2022/01/07 07:13:31;;;;;;;5.13;3.28;;;;;;;3.54;75.66;99896.59;5060655;28;20045;-87
2022/01/07 07:15:59;;;;;;;5.55;3.40;;;;;;;3.39;76.25;99907.69;5061222;28;20049;-86
2022/01/07 07:18:26;;;;;;;5.50;3.17;;;;;;;3.37;76.19;99915.41;5062392;28;20059;-86
2022/01/07 07:20:54;;;;;;;5.28;3.50;;;;;;;3.29;75.67;99897.53;5061440;28;20060;-85
2022/01/07 07:23:21;;;;;;;4.55;3.10;;;;;;;3.39;75.23;99896.69;5061738;28;20486;-86
2022/01/07 07:25:49;;;;;;;8.80;4.28;;;;;;;3.19;75.84;99914.91;5061914;28;20482;-86
2022/01/07 07:28:16;;;;;;;9.90;3.60;;;;;;;3.31;76.08;99894.50;5059528;28;20056;-85
2022/01/07 07:30:46;;;;;;;5.40;3.47;;;;;;;3.40;76.07;99884.53;5059617;28;20049;-86
2022/01/07 07:33:32;;;;;;;6.80;3.50;;;;;;;3.33;75.46;99889.53;5060924;28;20398;-87
2022/01/07 07:38:46;;;;;;;6.32;3.83;;;;;;;2.95;77.08;99919.34;5060888;28;20056;-87
2022/01/07 07:41:14;;;;;;;5.95;3.95;;;;;;;2.94;77.86;99885.53;5059509;28;20064;-87
2022/01/07 07:43:42;;;;;;;6.45;4.15;;;;;;;3.05;77.48;99889.88;5059884;28;20063;-87
2022/01/07 07:46:11;;;;;;;4.90;3.50;;;;;;;3.30;76.46;99888.19;5061527;28;20049;-87
2022/01/07 07:48:39;;;;;;;6.22;3.40;;;;;;;3.35;76.34;99901.09;5064518;28;20053;-88
2022/01/07 07:51:07;;;;;;;4.70;3.25;;;;;;;3.29;76.55;99903.03;5062926;28;20049;-88
2022/01/07 07:53:34;;;;;;;4.10;2.80;;;;;;;3.23;76.06;99907.75;5063587;28;20056;-87
2022/01/07 07:56:01;;;;;;;4.03;3.05;;;;;;;3.28;77.24;99917.91;5063552;28;20159;-87
2022/01/07 07:58:29;;;;;;;6.75;3.30;;;;;;;3.48;75.97;99906.00;5079186;28;20061;-88
2022/01/07 08:00:57;;;;;;;4.70;3.05;;;;;;;3.48;76.00;99892.22;5073474;28;20056;-82
2022/01/07 08:03:27;;;;;;;6.53;3.45;;;;;;;3.59;75.62;99907.63;5057708;28;20056;-81
2022/01/07 08:05:54;;;;;;;3.90;3.00;;;;;;;3.58;74.40;99910.66;5055630;28;20056;-81
2022/01/07 08:08:25;;;;;;;4.50;3.42;;;;;;;3.65;74.67;99905.63;5057162;28;20053;-88
2022/01/07 08:10:57;;;;;;;4.20;3.00;;;;;;;3.60;74.70;99914.75;5040055;28;20083;-88
2022/01/07 08:13:30;;;;;;;4.50;3.25;;;;;;;3.64;74.50;99893.81;5053553;28;20057;-87
2022/01/07 08:16:01;;;;;;;5.18;3.25;;;;;;;3.57;75.38;99898.81;5060669;28;20045;-88
2022/01/07 08:18:31;;;;;;;4.43;2.90;;;;;;;3.70;74.55;99897.38;5060196;28;20413;-87
2022/01/07 08:24:07;;;;;;;5.20;3.30;;;;;;;3.64;74.28;99899.31;5061726;28;19928;-88
2022/01/07 08:26:35;;;;;;;5.25;3.38;;;;;;;3.70;74.83;99891.03;5061814;28;20057;-88
2022/01/07 08:29:06;;;;;;;4.47;2.72;;;;;;;3.74;74.13;99884.69;5061006;28;20056;-89
2022/01/07 08:37:13;;;;;;;4.88;3.35;;;;;;;3.84;73.69;99890.13;5057416;28;20481;-89
2022/01/07 08:39:48;;;;;;;4.65;3.20;;;;;;;3.71;74.16;99892.69;5058066;28;20055;-90
2022/01/07 08:42:19;;;;;;;5.15;3.08;;;;;;;3.81;73.33;99898.13;5042307;28;20049;-91
2022/01/07 08:44:52;;;;;;;3.78;3.10;;;;;;;3.81;73.76;99882.44;5057693;28;20061;-90
2022/01/07 08:47:21;;;;;;;5.65;3.40;;;;;;;3.89;72.89;99897.56;5059319;28;20056;-88
2022/01/07 08:49:52;;;;;;;4.63;3.25;;;;;;;3.67;74.54;99906.19;5059564;28;20049;-88
2022/01/07 08:52:21;;;;;;;5.35;3.30;;;;;;;4.01;73.28;99900.78;5060892;28;20040;-88
2022/01/07 08:54:51;;;;;;;3.83;3.28;;;;;;;4.06;72.62;99916.47;5059959;28;20401;-87
2022/01/07 08:57:20;;;;;;;4.47;3.10;;;;;;;4.01;73.03;99903.53;5060575;28;20052;-87
2022/01/07 08:59:48;;;;;;;6.80;3.33;;;;;;;4.02;73.10;99899.66;5058598;28;20395;-84
2022/01/07 09:02:15;;;;;;;4.00;3.05;;;;;;;4.11;72.48;99893.56;5063107;28;20473;-86
2022/01/07 09:04:42;;;;;;;5.22;3.60;;;;;;;4.03;73.17;99898.56;5063419;28;20101;-87
2022/01/07 09:07:13;;;;;;;5.38;3.08;;;;;;;4.20;72.61;99886.31;5063171;28;20065;-87
2022/01/07 09:09:41;;;;;;;5.47;3.10;;;;;;;4.18;72.21;99891.28;5062616;28;20053;-86
2022/01/07 09:12:09;;;;;;;5.07;3.03;;;;;;;4.13;72.18;99889.41;5061340;28;20057;-85
2022/01/07 09:14:37;;;;;;;6.35;3.97;;;;;;;4.05;72.56;99876.22;5067476;28;20053;-86
2022/01/07 09:17:05;;;;;;;5.10;3.50;;;;;;;4.06;72.88;99883.38;5064155;28;20049;-87
2022/01/07 09:19:33;;;;;;;5.45;3.30;;;;;;;4.13;71.77;99885.81;5061296;28;20067;-86
2022/01/07 09:22:01;;;;;;;6.13;3.83;;;;;;;4.16;72.24;99896.25;5060066;28;20048;-88
2022/01/07 09:24:30;;;;;;;6.22;3.92;;;;;;;4.38;71.84;99893.91;5060298;28;20056;-87
2022/01/07 09:26:58;;;;;;;6.63;3.83;;;;;;;4.52;71.26;99883.06;5059717;28;20509;-87
2022/01/07 09:29:27;;;;;;;5.40;3.75;;;;;;;4.39;72.11;99876.25;5060715;28;20075;-85
2022/01/07 09:31:56;;;;;;;6.97;3.83;;;;;;;4.42;71.86;99872.91;5064738;28;20064;-85
2022/01/07 09:34:23;;;;;;;4.18;3.03;;;;;;;4.46;71.53;99881.44;5051708;28;20059;-87
2022/01/07 09:36:51;;;;;;;5.10;3.40;;;;;;;4.53;71.48;99881.09;5059712;28;20072;-87
2022/01/07 09:39:18;;;;;;;7.43;4.22;;;;;;;4.54;72.11;99888.28;5059828;28;20048;-88
2022/01/07 09:41:47;;;;;;;7.13;3.55;;;;;;;4.73;71.89;99877.34;5059072;28;20033;-88
2022/01/07 09:44:16;;;;;;;4.85;3.55;;;;;;;5.04;70.29;99873.19;5065263;28;20068;-88
2022/01/07 09:46:45;;;;;;;5.10;3.72;;;;;;;4.95;69.82;99874.09;5060000;28;20049;-87
2022/01/07 09:49:12;;;;;;;4.72;3.20;;;;;;;4.93;70.40;99871.63;5058557;28;20049;-87
2022/01/07 09:51:42;;;;;;;5.35;3.20;;;;;;;5.01;70.21;99879.25;5058772;28;20479;-87
2022/01/07 09:54:10;;;;;;;5.85;3.47;;;;;;;4.94;69.68;99873.28;5057362;28;20049;-88
2022/01/07 09:56:39;;;;;;;6.90;3.63;;;;;;;4.62;70.38;99877.44;5061542;28;20128;-87
2022/01/07 09:59:09;;;;;;;7.82;3.65;;;;;;;4.72;70.51;99876.50;5061306;28;20049;-87
2022/01/07 10:01:57;;;;;;;5.38;3.20;;;;;;;4.83;70.47;99874.47;5058389;28;20063;-88
2022/01/07 10:04:32;;;;;;;5.65;3.35;;;;;;;4.94;69.53;99881.56;5055697;28;20064;-88
2022/01/07 10:07:16;;;;;;;5.70;3.30;;;;;;;4.67;70.36;99895.88;5059490;28;20053;-88
2022/01/07 10:09:58;;;;;;;6.05;2.95;;;;;;;4.81;70.56;99880.31;5061327;28;20048;-88
2022/01/07 10:12:27;;;;;;;6.20;3.33;;;;;;;4.83;70.26;99894.63;5057077;28;20365;-88
2022/01/07 10:15:17;;;;;;;3.97;2.58;;;;;;;4.98;69.34;99887.31;5059086;28;20055;-89
2022/01/07 10:17:58;;;;;;;3.72;3.03;;;;;;;4.90;69.86;99890.72;5046862;28;20056;-88
2022/01/07 10:20:28;;;;;;;5.10;3.13;;;;;;;5.14;69.07;99871.41;5056293;28;20404;-87
2022/01/07 10:23:05;;;;;;;4.18;2.85;;;;;;;5.03;69.64;99866.00;5057513;28;20052;-88
2022/01/07 10:25:36;;;;;;;4.53;2.65;;;;;;;5.19;68.58;99847.34;5038357;28;20059;-88
2022/01/07 10:28:10;;;;;;;4.40;2.90;;;;;;;5.20;68.62;99853.69;5038754;28;20354;-87
2022/01/07 10:30:45;;;;;;;3.88;2.88;;;;;;;5.18;68.06;99836.59;5030288;28;20053;-87
2022/01/07 10:33:18;;;;;;;5.43;3.25;;;;;;;5.37;67.77;99839.38;5056075;28;20055;-88
2022/01/07 10:35:47;;;;;;;3.85;3.15;;;;;;;5.37;68.07;99850.44;5063315;28;20060;-87
2022/01/07 10:38:19;;;;;;;4.03;3.10;;;;;;;5.29;68.34;99824.28;5063140;28;20414;-86
2022/01/07 10:40:48;;;;;;;3.72;2.80;;;;;;;5.26;68.42;99839.50;5061877;28;20052;-86
2022/01/07 10:43:18;;;;;;;6.43;3.22;;;;;;;4.88;70.05;99827.53;5058353;28;20049;-88
2022/01/07 10:45:49;;;;;;;4.38;3.00;;;;;;;5.37;68.52;99822.81;5058350;28;20049;-89
2022/01/07 10:48:19;;;;;;;5.32;2.90;;;;;;;5.55;67.92;99849.66;5054375;28;20053;-89
2022/01/07 10:50:48;;;;;;;;;;;;;;;5.40;67.82;99838.81;5056919;28;20429;-89
2022/01/07 10:53:21;;;;;;;3.60;2.80;;;;;;;5.47;67.43;99845.59;5058549;28;19928;-88
2022/01/07 10:56:10;;;;;;;4.20;3.05;;;;;;;5.47;67.80;99845.59;5059652;28;20057;-87
2022/01/07 10:59:01;;;;;;;4.70;3.00;;;;;;;5.54;67.66;99845.22;5052857;28;20056;-84
2022/01/07 11:01:40;;;;;;;5.60;2.90;;;;;;;5.41;68.16;99835.72;5057912;28;20087;-87
2022/01/07 11:04:10;;;;;;;4.60;2.58;;;;;;;5.47;68.50;99836.50;5058510;28;20049;-87
2022/01/07 11:06:40;;;;;;;4.25;2.72;;;;;;;5.54;67.43;99842.47;5066980;28;20482;-83
2022/01/07 11:09:12;;;;;;;4.15;2.83;;;;;;;4.95;69.67;99829.94;5061631;28;20053;-85
2022/01/07 11:11:51;;;;;;;3.42;2.55;;;;;;;5.39;68.50;99829.69;5065286;28;20064;-84
2022/01/07 11:14:22;;;;;;;4.53;3.10;;;;;;;5.27;68.66;99824.59;5069081;28;20067;-84
2022/01/07 11:16:51;;;;;;;3.33;2.70;;;;;;;5.45;68.20;99820.22;5063617;28;20059;-84
2022/01/07 11:19:28;;;;;;;3.90;2.45;;;;;;;5.81;66.80;99816.94;5057135;28;20064;-87
2022/01/07 11:21:56;;;;;;;6.13;2.40;;;;;;;5.71;66.99;99817.09;5059181;28;20099;-88
2022/01/07 11:24:42;;;;;;;4.05;2.33;;;;;;;5.78;66.92;99827.81;5055960;28;20517;-88
2022/01/07 11:27:12;;;;;;;3.88;2.63;;;;;;;5.65;66.96;99824.66;5059108;28;20069;-88
2022/01/07 11:29:41;;;;;;;4.88;2.60;;;;;;;5.68;67.22;99817.72;5075021;28;20056;-87
2022/01/07 11:32:34;;;;;;;3.70;2.40;;;;;;;5.56;67.20;99814.56;5072108;28;20044;-87
2022/01/07 11:35:47;;;;;;;5.50;3.38;;;;;;;5.60;68.20;99810.91;5074685;28;20045;-87
2022/01/07 11:38:33;;;;;;;5.00;2.30;;;;;;;5.75;67.09;99806.28;5068544;28;20045;-86
2022/01/07 11:41:02;;;;;;;5.15;2.80;;;;;;;5.86;66.59;99805.03;5063511;28;20053;-86
2022/01/07 11:43:35;;;;;;;3.95;2.40;;;;;;;5.85;66.29;99814.41;5060094;28;20045;-86
2022/01/07 11:46:22;;;;;;;6.50;2.75;;;;;;;5.72;67.13;99812.41;5067687;28;20575;-87
2022/01/07 11:48:52;;;;;;;5.10;2.60;;;;;;;5.57;67.57;99817.03;5064178;28;20048;-85
2022/01/07 11:51:20;;;;;;;4.80;3.25;;;;;;;5.53;67.73;99804.94;5057918;28;20152;-85
2022/01/07 11:54:03;;;;;;;3.08;2.35;;;;;;;5.47;68.13;99811.63;5057168;28;20049;-83
2022/01/07 11:56:32;;;;;;;3.35;2.55;;;;;;;5.56;67.78;99811.78;5058158;28;20061;-84
2022/01/07 11:59:11;;;;;;;3.03;2.38;;;;;;;5.56;68.17;99809.84;5063014;28;20056;-86
2022/01/07 12:01:41;;;;;;;3.83;2.57;;;;;;;5.73;67.53;99812.09;5062639;28;20056;-85